Race Coverage Navigation

TS # 13 / Montezuma Creek, UT  2019

 


TS STATS
TS Distance 39.59 
Total Distance 834.01 
Miles To Go 2236.27 
TS Climbing 784 
Total Climbing
TS  Elevation
TS  Net Elevation 1229 
Map Filename Open Map 
Directions Filename  
Latitude 37.26 
Longitude -109.3 
Google Map  TimeStation Map 


TS Arrival Data
Arr Ord  #/Name Arrival DT TS Dst Avg This TS Avg Overall Ascending
 1 563 - Team Nico Ultracycling - In Fight against Cancer   06/15/2019 4:01 39.59  8.19  9.98 
 2 R116 - Philippe May  06/15/2019 1:46 39.59  8.13  10.13 
 3 607 - Sabine Bird (Team Bean)  06/15/2019 0:45 39.59  8.93  10.33 
 4 R112 - John Hoopingarner  06/14/2019 23:10 39.59  7.59  10.46 
 5 R119 - Team BlueLine (Martha Hall)  06/14/2019 22:57 39.59  10.56  10.46 
 6 R115 - Kym Louie  06/14/2019 21:30 39.59  11.53  10.66 
 7 605 - Christian Echavarria  06/14/2019 22:30 39.59  13.12  10.67 
 8 R117 - ROGIE (Roger Foote)  06/14/2019 21:34 39.59  11.94  10.67 
 9 R121 - Ironmae (Rosecler Costa)  06/14/2019 21:05 39.59  14.85  10.71 
 10 R105 - 2nd Chance Racing (Craig Johnson)  06/14/2019 21:21 39.59  11.42  10.71 
 11 R110 - James Golding  06/14/2019 21:08 39.59  14.75  10.74 
 12 527 - TALABARDON (Herve Talabardon)  06/14/2019 21:39 39.59  9.74  10.81 
 13 R122 - Kirk Gentle  06/14/2019 20:14 39.59  11.26  10.85 
 14 R114 - Krishna Prakash  06/14/2019 20:09 39.59  11.1  10.87 
 15 608 - Elin Starup  06/14/2019 20:09 39.59  11.88  10.95 
 16 424 - Team i RON man Veterans supporting Veterans  06/14/2019 19:52 39.59  13.97  11.07 
 17 399 - Valerio Zamboni  06/14/2019 18:33 39.59  10.24  11.27 
 18 R84 - James Jason Ingels  06/14/2019 16:33 39.59  10.28  11.43 
 19 539 - Kari Rouvinen  06/14/2019 16:31 39.59  8.67  11.57 
 20 610 - Kabir Rachure  06/14/2019 16:20 39.59  27.95  11.58 
 21 618 - GREGORY ROBINSON  06/14/2019 15:53 39.59  15.13  11.64 
 22 510 - John C. Tarlton  06/14/2019 15:32 39.59  11.82  11.74 
 23 R103 - Chris Davies  06/14/2019 14:00 39.59  13.34  11.84 
 24 411 - Geoff Brunner  06/14/2019 14:49 39.59  14.4  11.87 
 25 559 - Team Martin RAAM 2019 (Martin Bergmeister)  06/14/2019 14:14 39.59  15.53  11.95 
 26 611 - Marcelo Soares " MIXIRICA "  06/14/2019 14:04 39.59  13.97  11.96 
 27 R104 - Team everve Christian (Christian Beichel)  06/14/2019 12:30 39.59  22.2  12.09 
 28 367 - Daniela Genovesi  06/14/2019 12:46 39.59  12.77  12.15 
 29 R120 - Team Next Step (Peter Pedersen)  06/14/2019 10:07 39.59  12.31  12.49 
 30 604 - Chieko Ozawa  06/14/2019 10:39 39.59  5.88  12.52 
 31 R106 - Damaceleste.com (Valentina Tanzi)  06/14/2019 9:54 39.59  11.53  12.53 
 32 568 - Alexandra Meixner  06/14/2019 10:04 39.59  10.95  12.64 
 33 416 - Leah Goldstein  06/14/2019 9:39 39.59  11.94  12.72 
 34 623 - Ultra Paka Racing Team (Daniel Polman)  06/14/2019 9:08 39.59  5.05  12.83 
 35 615 - Philipp Amhof  06/14/2019 9:01 39.59  12.37  12.88 
 36 161 - Seana Hogan  06/14/2019 7:29 39.59  12.5  13.17 
 37 620 - Team Jefferson (Allan Jefferson)  06/14/2019 6:43 39.59  10.8  13.34 
 38 603 - Alan Bradley  06/14/2019 6:48 39.59  8.86  13.36 
 39 622 - Thomas Odom-Team Kyle Pease Foundation  06/14/2019 5:36 39.59  14.22  13.58 
 40 R124 - Andres Rodriguez  06/14/2019 4:38 39.59  8.25  13.6 
 41 442 - Joe Barr  06/14/2019 5:34 39.59  13.97  13.66 
 42 329 - Peter Oyler  06/14/2019 5:04 39.59  13.97  13.79 
 43 T210 - Bike Wine Team  06/18/2019 3:36 39.59  23.29  13.8 
 44 R111 - Jennifer Orr  06/14/2019 2:17 39.59  13.12  14.14 
 45 T409 - Serpentine Golden Girls  06/18/2019 1:59 39.59  12.37  14.22 
 46 T203 - JPsDuo  06/18/2019 0:18 39.59  11.53  14.57 
 47 R209 - Workhorses  06/14/2019 0:13 39.59  19.31  14.6 
 48 R201 - IN OUR PRIME  06/14/2019 0:07 39.59  14.14  14.65 
 49 529 - Isa Pulver  06/14/2019 0:51 39.59  12.24  14.69 
 50 R203 - Mike 'n' Jay Giretto con Amici  06/13/2019 23:28 39.59  14.94  14.81 
 51 T205 - Prevent Breast Cancer powered by Endomag  06/17/2019 23:12 39.59  11.94  14.86 
 52 T207 - Team Life Time  06/17/2019 22:37 39.59  11.64  15.03 
 53 T200 - AIR RELAX GoPro TEAM BRASIL  06/17/2019 22:13 39.59  15.63  15.1 
 54 349 - Mark Pattinson  06/13/2019 23:42 39.59  14.14  15.13 
 55 288 - Dave Haase  06/13/2019 23:18 39.59  14.94  15.25 
 56 617 - SOLO.kiwi (Craig Harper)  06/13/2019 22:50 39.59  14.31  15.27 
 57 T208 - Team Machine  06/17/2019 21:36 39.59  23.52  15.31 
 58 612 - Markus K. Brandl  06/13/2019 22:07 39.59  24.24  15.5 
 59 609 - Jakob Olsen  06/13/2019 21:53 39.59  16.5  15.58 
 60 R402 - SUWOS  06/13/2019 19:40 39.59  15.33  15.85 
 61 T801 - Mind Over Matter  06/17/2019 20:04 39.59  28.97  15.87 
 62 T417 - Team4RAAM 2019 powered by TGW Living Logistics  06/17/2019 19:44 39.59  35.45  15.95 
 63 T806 - Team SuperMarrow  06/17/2019 19:30 39.59  14.22  16.06 
 64 T402 - EA/WFP RAAM Team  06/17/2019 18:53 39.59  15.94  16.14 
 65 279 - Marko Baloh  06/13/2019 19:45 39.59  13.81  16.32 
 66 T413 - TEAM BRASIL - SKIPPER  06/17/2019 18:19 39.59  17.86  16.37 
 67 T204 - Lucan CRC  06/17/2019 16:43 39.59  18.41  16.8 
 68 T405 - High Rollers  06/17/2019 16:23 39.59  17.21  16.97 
 69 T415 - TEAM FIRE VELO 935  06/17/2019 16:32 39.59  23.75  16.98 
 70 T206 - Project Linear Acceleration  06/17/2019 16:10 39.59  15.94  17 
 71 T410 - Soap-Aid  06/17/2019 16:10 39.59  12.7  17.08 
 72 T414 - Brazil Nuts  06/17/2019 16:00 39.59  25.82  17.16 
 73 R205 - Team OB2  06/13/2019 15:23 39.59  16.97  17.29 
 74 T803 - Team EndoPark  06/17/2019 15:41 39.59  16.05  17.32 
 75 T202 - Integra Medical - BAA Racing  06/17/2019 14:45 39.59  15.23  17.48 
 76 R200 - EY Legacy Builders 2019  06/13/2019 14:46 39.59  16.05  17.53 
 77 T403 - EKJ Denmark  06/17/2019 14:43 39.59  17.86  17.56 
 78 R400 - HTX Velo Femme  06/13/2019 14:19 39.59  16.61  17.65 
 79 T418 - The Opportunists  06/17/2019 13:48 39.59  14.75  18 
 80 R401 - San Diego Sports Medicine/Zoca  06/13/2019 12:39 39.59  15.53  18.29 
 81 377 - Christoph Strasser  06/13/2019 13:54 39.59  14.4  18.43 
 82 T400 - Cantastic4  06/17/2019 12:13 39.59  18.13  18.51 
 83 T408 - Radeln-fuer-Kinder (Cycling-for-Kids)  06/17/2019 12:05 39.59  19  18.62 
 84 T804 - Team FSHD Skyland Trail  06/17/2019 12:12 39.59  17.73  18.68 
 85 T406 - Operation Walk Midwest  06/17/2019 11:54 39.59  17.6  18.69 
 86 T808 - Antonia's Friends 2019  06/17/2019 12:07 39.59  18.56  18.74 
 87 T416 - Team Rotary Raams Polio  06/17/2019 11:38 39.59  18.41  18.87 
 88 T802 - Scorchers  06/17/2019 11:09 39.59  20.66  19.11 
 89 T807 - Team ZOE International  06/17/2019 10:26 39.59  20.66  19.47 
 90 T412 - Team Aspect  06/17/2019 10:03 39.59  29.69  19.54 
 91 T407 - Julian Becker   06/17/2019 9:38 39.59  19.31  19.69 
 92 T805 - Team Oceanside  06/17/2019 9:41 39.59  17.47  19.8 
 93 R403 - Team Viasat-Denver  06/13/2019 8:27 39.59  16.61  20.13 
 94 T201 - EAT WELL  06/17/2019 8:17 39.59  21.99  20.21 
 95 T404 - Gentlemen of speed  06/17/2019 6:57 39.59  19.63  21 
 96 T401 - Data Techniques powered by Networks Centre  06/17/2019 5:57 39.59  19.8  21.51 
 97 R404 - Team Viasat - Carlsbad  06/13/2019 5:44 39.59  18.13  21.53 
 98 T800 - Backstedt Racing Project 14  06/17/2019 4:55 39.59  21.21  22.28 
 99 T411 - team alpha - tischlerei groemmer  06/17/2019 4:40 39.59  32.1  22.35